createdAt,value
2022-09-24T00:01:39.382Z,10.77
2022-09-24T00:04:14.350Z,10.77
2022-09-24T00:06:45.461Z,10.64
2022-09-24T00:09:16.087Z,10.68
2022-09-24T00:11:45.573Z,10.62
2022-09-24T00:14:13.352Z,10.64
2022-09-24T00:16:43.746Z,10.67
2022-09-24T00:19:13.319Z,10.65
2022-09-24T00:21:41.862Z,10.57
2022-09-24T00:24:35.934Z,10.59
2022-09-24T00:27:06.989Z,10.50
2022-09-24T00:29:35.372Z,10.56
2022-09-24T00:32:05.337Z,10.57
2022-09-24T00:34:32.319Z,10.56
2022-09-24T00:36:59.537Z,10.56
2022-09-24T00:39:26.689Z,10.57
2022-09-24T00:41:53.794Z,10.49
2022-09-24T00:44:45.371Z,10.43
2022-09-24T00:47:32.095Z,10.39
2022-09-24T00:50:32.044Z,10.38
2022-09-24T00:53:13.912Z,10.29
2022-09-24T00:55:45.938Z,10.25
2022-09-24T00:58:14.397Z,10.17
2022-09-24T01:00:45.695Z,10.21
2022-09-24T01:03:23.131Z,10.22
2022-09-24T01:05:50.744Z,10.26
2022-09-24T01:08:21.019Z,10.27
2022-09-24T01:11:36.755Z,10.38
2022-09-24T01:15:01.162Z,10.39
2022-09-24T01:18:04.366Z,10.50
2022-09-24T01:21:09.178Z,10.27
2022-09-24T01:24:18.356Z,10.28
2022-09-24T01:27:20.048Z,10.11
2022-09-24T01:30:12.346Z,10.16
2022-09-24T01:33:00.888Z,10.35
2022-09-24T01:35:53.642Z,10.34
2022-09-24T01:38:34.473Z,10.33
2022-09-24T01:41:03.443Z,10.45
2022-09-24T01:43:32.846Z,10.42
2022-09-24T01:46:06.437Z,10.46
2022-09-24T01:48:37.270Z,10.48
2022-09-24T01:51:27.798Z,10.55
2022-09-24T01:54:18.039Z,10.39
2022-09-24T01:57:31.968Z,10.33
2022-09-24T02:00:15.019Z,10.39
2022-09-24T02:02:58.177Z,10.38
2022-09-24T02:06:03.859Z,10.39
2022-09-24T02:08:39.022Z,10.40
2022-09-24T02:11:14.690Z,10.35
2022-09-24T02:14:14.428Z,10.47
2022-09-24T02:16:48.960Z,10.48
2022-09-24T02:19:25.109Z,10.52
2022-09-24T02:21:52.756Z,10.40
2022-09-24T02:24:57.167Z,10.46
2022-09-24T02:27:29.294Z,10.40
2022-09-24T02:29:58.880Z,10.32
2022-09-24T02:32:31.105Z,10.39
2022-09-24T02:35:03.728Z,10.49
2022-09-24T02:37:40.558Z,10.54
2022-09-24T02:40:11.914Z,10.56
2022-09-24T02:42:41.042Z,10.57
2022-09-24T02:45:09.040Z,10.51
2022-09-24T02:47:36.926Z,10.52
2022-09-24T02:50:04.665Z,10.49
2022-09-24T02:52:31.669Z,10.48
2022-09-24T02:54:58.635Z,10.47
2022-09-24T02:57:25.649Z,10.57
2022-09-24T02:59:52.592Z,10.61
2022-09-24T03:02:19.553Z,10.62
2022-09-24T03:04:47.128Z,10.57
2022-09-24T03:07:15.024Z,10.60
2022-09-24T03:09:42.005Z,10.63
2022-09-24T03:12:09.542Z,10.62
2022-09-24T03:14:36.483Z,10.57
2022-09-24T03:17:04.080Z,10.54
2022-09-24T03:19:31.027Z,10.49
2022-09-24T03:21:58.012Z,10.44
2022-09-24T03:24:24.939Z,10.54
2022-09-24T03:26:51.927Z,10.49
2022-09-24T03:29:38.922Z,10.52
2022-09-24T03:32:05.915Z,10.52
2022-09-24T03:34:32.849Z,10.53
2022-09-24T03:36:59.800Z,10.54
2022-09-24T03:39:26.731Z,10.53
2022-09-24T03:41:53.698Z,10.53
2022-09-24T03:44:20.751Z,10.49
2022-09-24T03:46:48.203Z,10.62
2022-09-24T03:49:15.299Z,10.62
2022-09-24T03:51:42.261Z,10.95
2022-09-24T03:54:09.287Z,10.98
2022-09-24T03:56:36.272Z,10.62
2022-09-24T03:59:03.487Z,10.56
2022-09-24T04:01:33.167Z,10.41
2022-09-24T04:04:00.393Z,10.43
2022-09-24T04:06:27.355Z,10.52
2022-09-24T04:08:54.664Z,10.48
2022-09-24T04:11:22.697Z,10.50
2022-09-24T04:13:50.108Z,10.88
2022-09-24T04:16:17.972Z,10.69
2022-09-24T04:18:47.967Z,10.47
2022-09-24T04:21:15.207Z,10.50
2022-09-24T04:23:42.467Z,10.37
2022-09-24T04:26:09.563Z,10.34
2022-09-24T04:28:36.546Z,10.44
2022-09-24T04:31:04.017Z,10.31
2022-09-24T04:33:31.014Z,10.22
2022-09-24T04:35:58.035Z,10.16
2022-09-24T04:38:25.051Z,10.18
2022-09-24T04:40:52.052Z,10.29
2022-09-24T04:43:19.341Z,10.20
2022-09-24T04:45:46.779Z,10.21
2022-09-24T04:48:14.808Z,10.37
2022-09-24T04:50:45.727Z,10.36
2022-09-24T04:53:14.299Z,10.45
2022-09-24T04:55:41.888Z,10.52
2022-09-24T04:58:09.966Z,10.44
2022-09-24T05:00:37.284Z,10.38
2022-09-24T05:03:04.773Z,10.24
2022-09-24T05:05:33.933Z,10.29
2022-09-24T05:08:01.872Z,10.25
2022-09-24T05:10:31.599Z,10.16
2022-09-24T05:12:59.346Z,10.32
2022-09-24T05:15:26.761Z,10.21
2022-09-24T05:17:53.719Z,10.32
2022-09-24T05:20:20.886Z,10.25
2022-09-24T05:22:50.554Z,10.35
2022-09-24T05:25:21.168Z,10.52
2022-09-24T05:27:54.862Z,10.38
2022-09-24T05:30:25.550Z,10.38
2022-09-24T05:32:53.041Z,10.76
2022-09-24T05:35:24.507Z,10.66
2022-09-24T05:37:53.732Z,10.65
2022-09-24T05:40:40.346Z,10.54
2022-09-24T05:43:07.526Z,10.96
2022-09-24T05:45:34.463Z,10.51
2022-09-24T05:48:01.671Z,10.73
2022-09-24T05:50:28.753Z,10.75
2022-09-24T05:52:56.078Z,10.81
2022-09-24T05:55:23.096Z,10.83
2022-09-24T05:57:50.121Z,11.03
2022-09-24T06:00:17.149Z,11.22
2022-09-24T06:02:44.268Z,11.25
2022-09-24T06:05:12.618Z,11.27
2022-09-24T06:07:39.902Z,11.10
2022-09-24T06:10:07.649Z,11.19
2022-09-24T06:12:34.943Z,11.00
2022-09-24T06:15:02.849Z,11.14
2022-09-24T06:17:31.172Z,11.18
2022-09-24T06:19:58.128Z,11.31
2022-09-24T06:22:28.643Z,11.35
2022-09-24T06:24:55.970Z,11.41
2022-09-24T06:27:23.076Z,11.84
2022-09-24T06:29:50.142Z,12.02
2022-09-24T06:32:18.169Z,12.11
2022-09-24T06:34:45.421Z,11.57
2022-09-24T06:37:12.365Z,11.68
2022-09-24T06:39:39.356Z,11.97
2022-09-24T06:42:07.091Z,12.06
2022-09-24T06:44:35.092Z,11.89
2022-09-24T06:47:02.307Z,11.68
2022-09-24T06:49:33.781Z,11.80
2022-09-24T06:52:02.499Z,11.83
2022-09-24T06:54:29.469Z,12.07
2022-09-24T06:56:56.401Z,12.06
2022-09-24T06:59:23.362Z,11.73
2022-09-24T07:01:50.406Z,11.63
2022-09-24T07:04:19.375Z,11.90
2022-09-24T07:07:18.440Z,11.71
2022-09-24T07:09:45.363Z,12.39
2022-09-24T07:12:12.500Z,12.42
2022-09-24T07:14:39.430Z,12.79
2022-09-24T07:17:06.394Z,12.68
2022-09-24T07:19:34.942Z,12.51
2022-09-24T07:22:01.907Z,12.49
2022-09-24T07:24:28.828Z,12.51
2022-09-24T07:26:56.360Z,12.52
2022-09-24T07:29:23.427Z,12.67
2022-09-24T07:31:50.710Z,13.10
2022-09-24T07:34:17.717Z,12.87
2022-09-24T07:36:44.660Z,13.11
2022-09-24T07:39:11.940Z,13.04
2022-09-24T07:41:42.452Z,12.94
2022-09-24T07:44:10.021Z,13.20
2022-09-24T07:46:37.322Z,13.36
2022-09-24T07:49:04.527Z,13.68
2022-09-24T07:51:31.788Z,13.83
2022-09-24T07:53:59.089Z,13.90
2022-09-24T07:56:26.165Z,13.78
2022-09-24T07:58:53.861Z,13.94
2022-09-24T08:01:21.159Z,13.85
2022-09-24T08:03:48.366Z,13.73
2022-09-24T08:06:15.399Z,14.13
2022-09-24T08:08:43.392Z,13.59
2022-09-24T08:11:13.389Z,13.51
2022-09-24T08:13:40.461Z,13.78
2022-09-24T08:16:07.508Z,14.24
2022-09-24T08:18:34.866Z,14.01
2022-09-24T08:21:11.845Z,14.31
2022-09-24T08:23:40.122Z,14.04
2022-09-24T08:26:07.310Z,13.99
2022-09-24T08:28:35.098Z,14.17
2022-09-24T08:31:09.105Z,13.91
2022-09-24T08:33:37.809Z,14.56
2022-09-24T08:36:09.013Z,14.46
2022-09-24T08:38:36.730Z,14.84
2022-09-24T08:41:56.956Z,14.36
2022-09-24T08:45:03.524Z,14.53
2022-09-24T08:48:09.047Z,14.53
2022-09-24T08:50:39.512Z,14.33
2022-09-24T08:53:31.469Z,14.82
2022-09-24T08:56:01.891Z,15.11
2022-09-24T08:59:00.464Z,14.40
2022-09-24T09:02:13.426Z,14.25
2022-09-24T09:04:59.768Z,14.02
2022-09-24T09:07:40.299Z,14.44
2022-09-24T09:10:27.815Z,14.15
2022-09-24T09:13:07.238Z,14.23
2022-09-24T09:15:42.357Z,14.62
2022-09-24T09:18:32.747Z,14.85
2022-09-24T09:21:27.775Z,14.92
2022-09-24T09:23:57.969Z,14.71
2022-09-24T09:26:27.207Z,15.71
2022-09-24T09:29:01.413Z,15.39
2022-09-24T09:31:56.363Z,14.65
2022-09-24T09:34:43.093Z,15.22
2022-09-24T09:37:48.137Z,15.06
2022-09-24T09:40:29.088Z,14.92
2022-09-24T09:43:14.224Z,15.10
2022-09-24T09:46:01.749Z,15.20
2022-09-24T09:48:39.775Z,15.71
2022-09-24T09:51:16.641Z,15.82
2022-09-24T09:54:00.158Z,15.53
2022-09-24T09:56:36.886Z,15.66
2022-09-24T09:59:12.947Z,15.69
2022-09-24T10:01:46.098Z,15.66
2022-09-24T10:04:35.912Z,15.94
2022-09-24T10:07:31.497Z,16.69
2022-09-24T10:10:24.217Z,16.79
2022-09-24T10:13:12.445Z,16.27
2022-09-24T10:16:03.682Z,15.96
2022-09-24T10:18:34.722Z,15.93
2022-09-24T10:21:09.023Z,15.85
2022-09-24T10:23:47.277Z,15.99
2022-09-24T10:26:15.185Z,15.90
2022-09-24T10:29:11.096Z,16.12
2022-09-24T10:31:42.038Z,15.80
2022-09-24T10:34:28.939Z,16.03
2022-09-24T10:37:04.246Z,15.94
2022-09-24T10:39:34.264Z,16.21
2022-09-24T10:42:01.373Z,16.43
2022-09-24T10:44:37.412Z,16.29
2022-09-24T10:47:25.783Z,16.55
2022-09-24T10:50:35.451Z,16.31
2022-09-24T10:53:12.035Z,16.87
2022-09-24T10:56:34.321Z,16.39
2022-09-24T10:59:40.004Z,16.75
2022-09-24T11:03:09.603Z,17.24
2022-09-24T11:05:45.276Z,17.62
2022-09-24T11:08:46.671Z,17.39
2022-09-24T11:11:42.009Z,17.48
2022-09-24T11:14:45.021Z,17.06
2022-09-24T11:17:49.701Z,17.64
2022-09-24T11:20:50.302Z,16.83
2022-09-24T11:24:27.836Z,16.52
2022-09-24T11:27:45.001Z,16.65
2022-09-24T11:30:21.711Z,16.84
2022-09-24T11:33:26.434Z,16.83
2022-09-24T11:36:28.785Z,16.94
2022-09-24T11:39:43.490Z,17.05
2022-09-24T11:43:07.511Z,17.54
2022-09-24T11:45:59.166Z,16.97
2022-09-24T11:48:51.642Z,17.58
2022-09-24T11:52:31.568Z,17.33
2022-09-24T11:55:40.123Z,17.72
2022-09-24T11:58:27.022Z,18.01
2022-09-24T12:01:03.515Z,17.47
2022-09-24T12:04:24.047Z,17.36
2022-09-24T12:06:59.993Z,17.05
2022-09-24T12:10:17.115Z,17.43
2022-09-24T12:12:48.788Z,17.79
2022-09-24T12:15:22.306Z,17.85
2022-09-24T12:18:02.694Z,18.24
2022-09-24T12:20:32.302Z,17.74
2022-09-24T12:23:15.343Z,17.55
2022-09-24T12:25:46.968Z,17.96
2022-09-24T12:28:39.297Z,17.67
2022-09-24T12:31:55.068Z,18.02
2022-09-24T12:34:57.932Z,18.03
2022-09-24T12:37:38.565Z,18.17
2022-09-24T12:40:50.865Z,18.21
2022-09-24T12:44:17.149Z,18.30
2022-09-24T12:46:57.277Z,17.87
2022-09-24T12:49:27.209Z,18.19
2022-09-24T12:52:01.544Z,17.73
2022-09-24T12:54:38.378Z,18.02
2022-09-24T12:57:26.296Z,18.23
2022-09-24T13:00:01.156Z,18.15
2022-09-24T13:02:53.894Z,18.22
2022-09-24T13:05:27.075Z,18.54
2022-09-24T13:08:19.897Z,18.76
2022-09-24T13:11:06.442Z,17.51
2022-09-24T13:13:43.370Z,17.68
2022-09-24T13:16:21.195Z,18.38
2022-09-24T13:18:56.422Z,18.67
2022-09-24T13:21:27.841Z,17.94
2022-09-24T13:23:56.497Z,17.92
2022-09-24T13:26:33.962Z,18.01
2022-09-24T13:29:05.657Z,18.05
2022-09-24T13:31:49.307Z,18.58
2022-09-24T13:34:32.241Z,18.76
2022-09-24T13:37:34.720Z,18.65
2022-09-24T13:40:16.731Z,18.11
2022-09-24T13:43:16.165Z,18.13
2022-09-24T13:45:45.266Z,17.68
2022-09-24T13:49:03.620Z,17.65
2022-09-24T13:51:36.562Z,17.22
2022-09-24T13:54:39.759Z,17.62
2022-09-24T13:57:19.797Z,17.34
2022-09-24T13:59:46.757Z,17.37
2022-09-24T14:02:28.243Z,17.51
2022-09-24T14:05:00.812Z,17.80
2022-09-24T14:07:28.733Z,17.78
2022-09-24T14:10:14.564Z,17.91
2022-09-24T14:12:41.733Z,18.08
2022-09-24T14:15:18.394Z,17.46
2022-09-24T14:17:59.478Z,17.16
2022-09-24T14:20:34.377Z,16.94
2022-09-24T14:23:04.402Z,17.19
2022-09-24T14:25:36.546Z,17.21
2022-09-24T14:28:05.331Z,16.94
2022-09-24T14:30:37.208Z,17.11
2022-09-24T14:33:13.633Z,17.31
2022-09-24T14:35:45.075Z,17.14
2022-09-24T14:38:29.639Z,16.90
2022-09-24T14:41:06.659Z,16.84
2022-09-24T14:43:47.327Z,16.76
2022-09-24T14:46:27.393Z,16.96
2022-09-24T14:49:27.795Z,16.61
2022-09-24T14:52:05.115Z,16.91
2022-09-24T14:54:40.271Z,17.05
2022-09-24T14:57:19.355Z,16.78
2022-09-24T14:59:47.431Z,17.01
2022-09-24T15:02:35.041Z,16.80
2022-09-24T15:05:07.141Z,16.73
2022-09-24T15:07:35.429Z,16.90
2022-09-24T15:10:06.254Z,16.67
2022-09-24T15:12:37.975Z,16.71
2022-09-24T15:15:16.858Z,16.63
2022-09-24T15:17:47.106Z,16.59
2022-09-24T15:20:14.786Z,16.36
2022-09-24T15:22:41.857Z,16.26
2022-09-24T15:25:10.369Z,16.37
2022-09-24T15:27:39.391Z,16.24
2022-09-24T15:30:12.704Z,16.33
2022-09-24T15:32:39.684Z,16.34
2022-09-24T15:35:09.276Z,16.23
2022-09-24T15:37:39.407Z,16.30
2022-09-24T15:40:30.668Z,16.10
2022-09-24T15:42:57.749Z,16.15
2022-09-24T15:45:25.765Z,16.06
2022-09-24T15:47:53.911Z,16.01
2022-09-24T15:50:23.495Z,16.03
2022-09-24T15:52:56.562Z,16.03
2022-09-24T15:55:24.081Z,15.93
2022-09-24T15:57:51.197Z,15.84
2022-09-24T16:00:22.568Z,15.87
2022-09-24T16:02:54.878Z,15.93
2022-09-24T16:05:26.461Z,15.93
2022-09-24T16:07:53.574Z,15.94
2022-09-24T16:10:20.663Z,15.94
2022-09-24T16:12:47.654Z,15.97
2022-09-24T16:15:16.751Z,15.97
2022-09-24T16:17:44.090Z,16.25
2022-09-24T16:20:11.334Z,16.29
2022-09-24T16:22:38.500Z,16.20
2022-09-24T16:25:06.506Z,16.15
2022-09-24T16:27:35.226Z,16.17
2022-09-24T16:30:04.067Z,15.88
2022-09-24T16:32:31.014Z,15.86
2022-09-24T16:34:57.966Z,15.67
2022-09-24T16:37:25.600Z,15.55
2022-09-24T16:39:52.808Z,15.37
2022-09-24T16:42:19.784Z,15.38
2022-09-24T16:44:46.835Z,15.37
2022-09-24T16:47:16.347Z,15.32
2022-09-24T16:49:43.374Z,15.16
2022-09-24T16:52:10.665Z,15.16
2022-09-24T16:54:37.661Z,15.32
2022-09-24T16:57:06.063Z,15.35
2022-09-24T16:59:33.693Z,15.47
2022-09-24T17:02:01.148Z,15.50
2022-09-24T17:04:28.372Z,15.35
2022-09-24T17:06:59.129Z,15.38
2022-09-24T17:09:44.712Z,15.32
2022-09-24T17:12:11.804Z,15.03
2022-09-24T17:14:39.037Z,15.14
2022-09-24T17:17:06.733Z,15.05
2022-09-24T17:19:33.750Z,15.08
2022-09-24T17:22:00.992Z,14.78
2022-09-24T17:24:28.104Z,14.67
2022-09-24T17:26:56.694Z,14.66
2022-09-24T17:29:30.319Z,14.65
2022-09-24T17:31:58.392Z,14.58
2022-09-24T17:34:25.451Z,14.55
2022-09-24T17:36:52.400Z,14.56
2022-09-24T17:39:19.440Z,14.54
2022-09-24T17:41:46.452Z,14.61
2022-09-24T17:44:13.540Z,14.58
2022-09-24T17:46:40.892Z,14.54
2022-09-24T17:49:08.027Z,14.52
2022-09-24T17:51:36.688Z,14.52
2022-09-24T17:54:11.614Z,14.52
2022-09-24T17:56:38.742Z,14.53
2022-09-24T17:59:09.000Z,14.48
2022-09-24T18:01:38.748Z,14.40
2022-09-24T18:04:11.258Z,14.31
2022-09-24T18:06:40.730Z,14.35
2022-09-24T18:09:10.424Z,14.33
2022-09-24T18:11:51.595Z,14.39
2022-09-24T18:14:22.739Z,14.33
2022-09-24T18:16:50.379Z,14.35
2022-09-24T18:19:18.071Z,14.35
2022-09-24T18:21:46.488Z,14.31
2022-09-24T18:24:14.458Z,14.20
2022-09-24T18:26:41.609Z,14.26
2022-09-24T18:29:15.543Z,14.10
2022-09-24T18:31:43.859Z,14.17
2022-09-24T18:34:15.446Z,14.23
2022-09-24T18:36:45.083Z,14.15
2022-09-24T18:39:17.693Z,14.12
2022-09-24T18:41:47.227Z,14.07
2022-09-24T18:44:14.210Z,13.95
2022-09-24T18:46:42.034Z,13.86
2022-09-24T18:49:11.949Z,13.97
2022-09-24T18:51:39.092Z,13.84
2022-09-24T18:54:12.397Z,13.83
2022-09-24T18:56:40.107Z,13.82
2022-09-24T18:59:19.411Z,13.74
2022-09-24T19:01:48.401Z,13.72
2022-09-24T19:04:16.047Z,13.74
2022-09-24T19:06:46.054Z,13.59
2022-09-24T19:09:17.201Z,13.67
2022-09-24T19:11:45.493Z,13.52
2022-09-24T19:14:14.901Z,13.61
2022-09-24T19:16:41.872Z,13.46
2022-09-24T19:19:11.282Z,13.52
2022-09-24T19:21:40.501Z,13.30
2022-09-24T19:24:07.940Z,13.40
2022-09-24T19:26:36.709Z,13.43
2022-09-24T19:29:04.994Z,13.45
2022-09-24T19:31:42.424Z,13.53
2022-09-24T19:34:13.031Z,13.42
2022-09-24T19:36:45.054Z,13.34
2022-09-24T19:39:17.412Z,13.24
2022-09-24T19:41:44.658Z,13.24
2022-09-24T19:44:12.205Z,13.32
2022-09-24T19:46:40.216Z,13.34
2022-09-24T19:49:07.434Z,13.38
2022-09-24T19:51:35.892Z,13.29
2022-09-24T19:54:08.383Z,13.32
2022-09-24T19:56:36.559Z,13.31
2022-09-24T19:59:05.909Z,13.23
2022-09-24T20:01:33.708Z,13.19
2022-09-24T20:04:06.357Z,13.31
2022-09-24T20:06:35.905Z,13.28
2022-09-24T20:09:03.440Z,13.20
2022-09-24T20:11:32.628Z,13.10
2022-09-24T20:14:01.225Z,13.16
2022-09-24T20:16:33.212Z,13.10
2022-09-24T20:19:02.231Z,13.16
2022-09-24T20:21:35.036Z,13.15
2022-09-24T20:24:03.963Z,13.19
2022-09-24T20:26:50.147Z,13.19
2022-09-24T20:29:19.694Z,13.03
2022-09-24T20:31:53.207Z,13.03
2022-09-24T20:34:31.628Z,13.04
2022-09-24T20:36:59.274Z,12.98
2022-09-24T20:39:26.446Z,13.03
2022-09-24T20:41:53.621Z,12.93
2022-09-24T20:44:22.051Z,12.94
2022-09-24T20:46:49.192Z,12.87
2022-09-24T20:49:23.076Z,12.89
2022-09-24T20:51:57.357Z,12.86
2022-09-24T20:54:26.717Z,12.79
2022-09-24T20:56:53.773Z,12.78
2022-09-24T20:59:20.769Z,12.88
2022-09-24T21:01:49.415Z,12.78
2022-09-24T21:04:17.272Z,12.79
2022-09-24T21:06:44.223Z,12.85
2022-09-24T21:09:11.550Z,12.70
2022-09-24T21:11:38.659Z,12.75
2022-09-24T21:14:09.822Z,12.69
2022-09-24T21:16:37.305Z,12.71
2022-09-24T21:19:07.756Z,12.71
2022-09-24T21:21:38.544Z,12.62
2022-09-24T21:24:10.116Z,12.78
2022-09-24T21:26:39.702Z,12.67
2022-09-24T21:29:17.129Z,12.61
2022-09-24T21:31:47.302Z,12.68
2022-09-24T21:34:18.041Z,12.62
2022-09-24T21:36:45.989Z,12.64
2022-09-24T21:39:24.054Z,12.73
2022-09-24T21:41:52.920Z,12.65
2022-09-24T21:44:21.413Z,12.61
2022-09-24T21:46:52.444Z,12.75
2022-09-24T21:49:20.439Z,12.74
2022-09-24T21:51:47.617Z,12.61
2022-09-24T21:54:18.134Z,12.71
2022-09-24T21:56:46.509Z,12.69
2022-09-24T21:59:33.738Z,12.69
2022-09-24T22:02:02.367Z,12.74
2022-09-24T22:04:31.801Z,12.56
2022-09-24T22:06:59.341Z,12.54
2022-09-24T22:09:26.777Z,12.52
2022-09-24T22:11:59.072Z,12.50
2022-09-24T22:14:26.607Z,12.56
2022-09-24T22:16:54.118Z,12.53
2022-09-24T22:19:21.191Z,12.51
2022-09-24T22:21:48.250Z,12.45
2022-09-24T22:24:15.961Z,12.56
2022-09-24T22:26:43.010Z,12.56
2022-09-24T22:29:10.022Z,12.57
2022-09-24T22:31:37.034Z,12.52
2022-09-24T22:34:22.791Z,12.61
2022-09-24T22:36:50.017Z,12.59
2022-09-24T22:39:17.043Z,12.62
2022-09-24T22:41:44.041Z,12.56
2022-09-24T22:44:12.176Z,12.37
2022-09-24T22:46:41.261Z,12.50
2022-09-24T22:49:10.239Z,12.50
2022-09-24T22:51:38.409Z,12.50
2022-09-24T22:54:05.971Z,12.41
2022-09-24T22:56:34.831Z,12.49
2022-09-24T22:59:02.242Z,12.44
2022-09-24T23:01:38.567Z,12.44
2022-09-24T23:04:06.144Z,12.49
2022-09-24T23:06:34.608Z,12.51
2022-09-24T23:09:01.940Z,12.38
2022-09-24T23:11:33.822Z,12.43
2022-09-24T23:14:10.984Z,12.45
2022-09-24T23:16:38.498Z,12.45
2022-09-24T23:19:13.333Z,12.59
2022-09-24T23:21:40.419Z,12.62
2022-09-24T23:24:15.158Z,12.63
2022-09-24T23:26:42.478Z,12.55
2022-09-24T23:29:11.071Z,12.59
2022-09-24T23:31:38.881Z,12.56
2022-09-24T23:34:07.530Z,12.52
2022-09-24T23:36:36.086Z,12.49
2022-09-24T23:39:04.878Z,12.49
2022-09-24T23:41:32.151Z,12.42
2022-09-24T23:43:59.806Z,12.31
2022-09-24T23:46:27.527Z,12.33
2022-09-24T23:48:55.581Z,12.36
2022-09-24T23:51:23.223Z,12.44
2022-09-24T23:53:50.465Z,12.45
2022-09-24T23:56:18.041Z,12.51
2022-09-24T23:58:45.979Z,12.47
